Aiuruoca, Brazil
Current Conditions -  °F | °C
As of 1:00 PM on Tuesday 21 Oct 2014 (Local Time) from SBGW Reporting Station
Overcast Overcast  
Wind Chill: 68°   Ceiling: 2500
Heat Index: 68°   Visibility: 5mi
Dew Point: 59°   Wind: 0mph
Humidity: 73%   Direction: NA
Pressure: 30.18"   Gusts: NA
Location:  21.98°S, 44.6°W
Report Text: SBGW 211500Z 00000KT 8000 SCT013 BKN025 OVC040 20/15 Q1022
Loading
Personal Weather Stations






























Interactive Weather Map
Tropical Storm Tracking
New forecast layout! Learn more

10-Day Weather Forecast

Advertisements
Track Severe Weather on mobile